Share

Incheon, South Korea

4:08 PM KST on April 23, 2014 (GMT +0900)
Incheon International (RKSI) Elev 23 ft | 37.47 °N, 126.45 °E | Change Station

Current weather conditions updated 8 minutes ago

Haze
Haze
66 °F
Feels Like 66 °F
N
9
Wind Variable Wind from NW
Sunrise 5:48 AM
Sunset 7:15 PM
Moon Last Quarter

Tomorrow is forecast to be Warmer than today.

Pressure 30.04 in
Visibility 3.1 miles
Clouds
Dew Point 48 °F
Humidity 52%
Rainfall 0.00 in
Snow Depth Not available.
UV Not available.
Pollen Not available.
Air Quality Not available.
Flu Activity Not available.
METAR RKSI 230700Z 32008KT 5000 HZ NSC 19/09 Q1017 NOSIG

More Conditions Fewer Conditions

Pressure 30.04 in
Visibility 3.1 miles
Clouds
Dew Point 48 °F
Humidity 52%
Rainfall 0.00 in
Snow Depth Not available.
UV Not available.
Pollen Not available.
Air Quality Not available.
Flu Activity Not available.
METAR RKSI 230700Z 32008KT 5000 HZ NSC 19/09 Q1017 NOSIG

More Conditions Fewer Conditions

10-Day Weather Forecast

Almanac

Astronomy

Apr. 23, 2014 Rise Set
Actual Time 5:48 AM KST 7:15 PM KST
Civil Twilight 5:21 AM KST 7:43 PM KST
Nautical Twilight 4:48 AM KST 8:16 PM KST
Astronomical Twilight 4:13 AM KST 8:50 PM KST
Moon 1:47 AM KST 12:51 PM KST
Length of Visible Light 14h 21m
Length of Day
13h 26m
Tomorrow will be 2m 12s longer.
Last Quarter, 39% of the Moon is Illuminated
Today
Last Quarter
Apr 29
New
May 6
First Quarter
May 14
Full
May 21
Last Quarter

Yesterday's Extremes

Country Highs Country Lows

Community

  • April Sunset
    April Sunset
  • Waiting..
    Waiting..
  • Sunset...
    Sunset...
  • Happy outdoor day
    Happy outdoor day
  • mystic afternoon....
    mystic afternoon....

WunderPhotos

Upload Photos

1,704,233 photos uploaded!

WunderBlogs® & News

By Dr. Jeff Masters
Director of Meteorology, Weather Underground
By Kari Strenfel
Meteorologist, Weather Underground
By Christopher C. Burt
Weather Historian, Weather Underground
April 23, 2014
April 22, 2014
April 22, 2014

Nearby

Snow Depth

Not available.

Coastal Water Temperatures

Place Temperature
No Stations Reporting

Earthquake Activity

City Distance Mag. Time & Date
No recent earthquake activity has been reported nearby.
Minimum magnitude displayed is 2.5.

Nearby Weather Stations

Station Location Temp. Heat Index Dew Point Humidity Wind Precip. Elev Updated Type
Bucheon3 76.4 °F 78 °F 49 °F 38% WSW  at  2.0 mph 0.00 in / hr 115 ft 4:03 PM KST Normal

Show More Stations Show Fewer Stations

What do you think?

We're not finished. Please let us know what you like, what you don't like, and what you are still missing.